sensor_id;sensor_type;location;lat;lon;timestamp;temperature;humidity
16134;DHT22;8172;45.018;5.972;2022-09-17T00:00:21;14.00;61.20
16134;DHT22;8172;45.018;5.972;2022-09-17T00:05:28;13.90;61.50
16134;DHT22;8172;45.018;5.972;2022-09-17T00:10:38;13.90;61.40
16134;DHT22;8172;45.018;5.972;2022-09-17T00:15:45;13.90;61.50
16134;DHT22;8172;45.018;5.972;2022-09-17T00:20:53;13.90;61.70
16134;DHT22;8172;45.018;5.972;2022-09-17T00:26:03;13.90;61.70
16134;DHT22;8172;45.018;5.972;2022-09-17T00:31:11;13.80;62.00
16134;DHT22;8172;45.018;5.972;2022-09-17T00:36:18;13.80;62.30
16134;DHT22;8172;45.018;5.972;2022-09-17T00:41:28;13.90;62.30
16134;DHT22;8172;45.018;5.972;2022-09-17T00:46:37;13.90;62.40
16134;DHT22;8172;45.018;5.972;2022-09-17T00:51:48;13.90;61.90
16134;DHT22;8172;45.018;5.972;2022-09-17T00:56:55;13.70;60.80
16134;DHT22;8172;45.018;5.972;2022-09-17T01:02:04;13.60;59.90
16134;DHT22;8172;45.018;5.972;2022-09-17T01:33:05;13.10;59.20
16134;DHT22;8172;45.018;5.972;2022-09-17T01:48:24;12.70;58.20
16134;DHT22;8172;45.018;5.972;2022-09-17T01:53:37;12.70;58.30
16134;DHT22;8172;45.018;5.972;2022-09-17T01:58:47;12.70;57.80
16134;DHT22;8172;45.018;5.972;2022-09-17T02:03:58;12.70;57.70
16134;DHT22;8172;45.018;5.972;2022-09-17T02:09:05;12.60;57.80
16134;DHT22;8172;45.018;5.972;2022-09-17T02:14:19;12.60;57.30
16134;DHT22;8172;45.018;5.972;2022-09-17T02:19:27;12.50;57.40
16134;DHT22;8172;45.018;5.972;2022-09-17T02:29:44;12.40;57.20
16134;DHT22;8172;45.018;5.972;2022-09-17T02:34:51;12.30;56.80
16134;DHT22;8172;45.018;5.972;2022-09-17T02:39:58;12.20;55.90
16134;DHT22;8172;45.018;5.972;2022-09-17T02:50:18;12.10;55.70
16134;DHT22;8172;45.018;5.972;2022-09-17T03:00:33;12.00;55.30
16134;DHT22;8172;45.018;5.972;2022-09-17T03:05:42;12.00;55.00
16134;DHT22;8172;45.018;5.972;2022-09-17T03:10:50;11.90;54.40
16134;DHT22;8172;45.018;5.972;2022-09-17T03:15:57;11.90;54.40
16134;DHT22;8172;45.018;5.972;2022-09-17T03:21:04;11.90;54.20
16134;DHT22;8172;45.018;5.972;2022-09-17T03:26:10;11.80;54.20
16134;DHT22;8172;45.018;5.972;2022-09-17T03:31:17;11.80;54.30
16134;DHT22;8172;45.018;5.972;2022-09-17T03:36:24;11.70;54.30
16134;DHT22;8172;45.018;5.972;2022-09-17T03:41:31;11.70;53.70
16134;DHT22;8172;45.018;5.972;2022-09-17T03:46:38;11.60;53.20
16134;DHT22;8172;45.018;5.972;2022-09-17T03:51:45;11.60;53.10
16134;DHT22;8172;45.018;5.972;2022-09-17T03:56:52;11.60;53.10
16134;DHT22;8172;45.018;5.972;2022-09-17T04:01:59;11.60;53.00
16134;DHT22;8172;45.018;5.972;2022-09-17T04:07:06;11.60;52.70
16134;DHT22;8172;45.018;5.972;2022-09-17T04:12:13;11.50;52.80
16134;DHT22;8172;45.018;5.972;2022-09-17T04:17:19;11.50;52.60
16134;DHT22;8172;45.018;5.972;2022-09-17T04:22:26;11.50;52.20
16134;DHT22;8172;45.018;5.972;2022-09-17T04:27:33;11.40;52.10
16134;DHT22;8172;45.018;5.972;2022-09-17T04:32:41;11.40;52.00
16134;DHT22;8172;45.018;5.972;2022-09-17T04:37:51;11.50;51.90
16134;DHT22;8172;45.018;5.972;2022-09-17T04:42:58;11.50;51.90
16134;DHT22;8172;45.018;5.972;2022-09-17T04:48:07;11.50;51.40
16134;DHT22;8172;45.018;5.972;2022-09-17T04:53:14;11.50;51.10
16134;DHT22;8172;45.018;5.972;2022-09-17T04:58:21;11.40;50.30
16134;DHT22;8172;45.018;5.972;2022-09-17T05:03:28;11.40;50.50
16134;DHT22;8172;45.018;5.972;2022-09-17T05:08:35;11.30;50.50
16134;DHT22;8172;45.018;5.972;2022-09-17T05:13:42;11.30;50.60
16134;DHT22;8172;45.018;5.972;2022-09-17T05:18:49;11.30;50.50
16134;DHT22;8172;45.018;5.972;2022-09-17T05:23:56;11.30;50.60
16134;DHT22;8172;45.018;5.972;2022-09-17T05:29:03;11.30;50.50
16134;DHT22;8172;45.018;5.972;2022-09-17T05:34:10;11.30;50.40
16134;DHT22;8172;45.018;5.972;2022-09-17T05:39:17;11.30;50.30
16134;DHT22;8172;45.018;5.972;2022-09-17T05:44:28;11.30;50.30
16134;DHT22;8172;45.018;5.972;2022-09-17T05:49:34;11.20;49.90
16134;DHT22;8172;45.018;5.972;2022-09-17T05:54:41;11.10;49.60
16134;DHT22;8172;45.018;5.972;2022-09-17T05:59:49;11.00;49.40
16134;DHT22;8172;45.018;5.972;2022-09-17T06:04:56;10.80;49.00
16134;DHT22;8172;45.018;5.972;2022-09-17T06:10:05;10.70;49.20
16134;DHT22;8172;45.018;5.972;2022-09-17T06:15:13;10.70;49.10
16134;DHT22;8172;45.018;5.972;2022-09-17T06:20:22;10.70;49.10
16134;DHT22;8172;45.018;5.972;2022-09-17T06:25:28;10.70;49.30
16134;DHT22;8172;45.018;5.972;2022-09-17T06:30:37;10.70;49.30
16134;DHT22;8172;45.018;5.972;2022-09-17T06:35:43;10.60;49.50
16134;DHT22;8172;45.018;5.972;2022-09-17T06:40:52;10.60;49.50
16134;DHT22;8172;45.018;5.972;2022-09-17T06:46:01;10.60;49.50
16134;DHT22;8172;45.018;5.972;2022-09-17T06:51:11;10.50;49.60
16134;DHT22;8172;45.018;5.972;2022-09-17T06:56:18;10.50;49.80
16134;DHT22;8172;45.018;5.972;2022-09-17T07:01:25;10.50;49.80
16134;DHT22;8172;45.018;5.972;2022-09-17T07:06:32;10.40;49.00
16134;DHT22;8172;45.018;5.972;2022-09-17T07:11:39;10.30;49.00
16134;DHT22;8172;45.018;5.972;2022-09-17T07:16:46;10.20;48.60
16134;DHT22;8172;45.018;5.972;2022-09-17T07:21:53;10.20;48.80
16134;DHT22;8172;45.018;5.972;2022-09-17T07:27:00;10.10;48.40
16134;DHT22;8172;45.018;5.972;2022-09-17T07:32:07;10.10;48.70
16134;DHT22;8172;45.018;5.972;2022-09-17T07:37:15;10.20;48.70
16134;DHT22;8172;45.018;5.972;2022-09-17T07:42:22;10.40;48.90
16134;DHT22;8172;45.018;5.972;2022-09-17T07:47:28;10.50;49.30
16134;DHT22;8172;45.018;5.972;2022-09-17T07:52:36;10.60;49.10
16134;DHT22;8172;45.018;5.972;2022-09-17T07:57:43;10.80;48.80
16134;DHT22;8172;45.018;5.972;2022-09-17T08:02:52;10.90;48.70
16134;DHT22;8172;45.018;5.972;2022-09-17T08:08:01;11.00;48.70
16134;DHT22;8172;45.018;5.972;2022-09-17T08:13:08;11.20;48.90
16134;DHT22;8172;45.018;5.972;2022-09-17T08:18:16;11.40;48.60
16134;DHT22;8172;45.018;5.972;2022-09-17T08:23:24;11.60;48.00
16134;DHT22;8172;45.018;5.972;2022-09-17T08:28:31;11.50;47.00
16134;DHT22;8172;45.018;5.972;2022-09-17T08:33:39;11.50;47.60
16134;DHT22;8172;45.018;5.972;2022-09-17T08:38:46;11.60;46.60
16134;DHT22;8172;45.018;5.972;2022-09-17T08:49:06;11.80;47.80
16134;DHT22;8172;45.018;5.972;2022-09-17T08:54:17;12.10;48.00
16134;DHT22;8172;45.018;5.972;2022-09-17T08:59:27;12.20;47.00
16134;DHT22;8172;45.018;5.972;2022-09-17T09:04:40;12.20;45.80
16134;DHT22;8172;45.018;5.972;2022-09-17T09:09:47;12.10;46.60
16134;DHT22;8172;45.018;5.972;2022-09-17T09:14:55;12.10;46.20
16134;DHT22;8172;45.018;5.972;2022-09-17T09:20:01;12.20;46.30
16134;DHT22;8172;45.018;5.972;2022-09-17T09:30:20;12.30;46.10
16134;DHT22;8172;45.018;5.972;2022-09-17T09:35:32;12.40;46.40
16134;DHT22;8172;45.018;5.972;2022-09-17T09:40:42;12.60;47.00
16134;DHT22;8172;45.018;5.972;2022-09-17T10:01:19;13.00;45.50
16134;DHT22;8172;45.018;5.972;2022-09-17T10:06:28;12.90;45.50
16134;DHT22;8172;45.018;5.972;2022-09-17T10:11:36;13.10;46.20
16134;DHT22;8172;45.018;5.972;2022-09-17T10:16:44;13.40;46.20
16134;DHT22;8172;45.018;5.972;2022-09-17T10:21:51;13.60;46.10
16134;DHT22;8172;45.018;5.972;2022-09-17T10:27:00;13.80;46.30
16134;DHT22;8172;45.018;5.972;2022-09-17T10:42:27;14.10;45.10
16134;DHT22;8172;45.018;5.972;2022-09-17T10:47:36;14.20;44.70
16134;DHT22;8172;45.018;5.972;2022-09-17T10:52:46;14.20;44.50
16134;DHT22;8172;45.018;5.972;2022-09-17T11:13:26;14.50;44.70
16134;DHT22;8172;45.018;5.972;2022-09-17T11:18:34;14.60;44.20
16134;DHT22;8172;45.018;5.972;2022-09-17T11:39:13;15.00;44.40
16134;DHT22;8172;45.018;5.972;2022-09-17T11:44:23;15.20;44.20
16134;DHT22;8172;45.018;5.972;2022-09-17T11:49:44;15.20;44.50
16134;DHT22;8172;45.018;5.972;2022-09-17T11:59:53;15.60;44.30
16134;DHT22;8172;45.018;5.972;2022-09-17T12:05:02;15.70;44.30
16134;DHT22;8172;45.018;5.972;2022-09-17T12:15:21;15.70;44.30
16134;DHT22;8172;45.018;5.972;2022-09-17T12:20:32;15.80;43.70
16134;DHT22;8172;45.018;5.972;2022-09-17T12:30:52;15.70;43.70
16134;DHT22;8172;45.018;5.972;2022-09-17T12:41:14;15.80;44.50
16134;DHT22;8172;45.018;5.972;2022-09-17T13:07:02;16.00;44.00
16134;DHT22;8172;45.018;5.972;2022-09-17T13:17:26;16.10;44.90
16134;DHT22;8172;45.018;5.972;2022-09-17T13:22:30;16.30;44.50
16134;DHT22;8172;45.018;5.972;2022-09-17T13:27:36;16.40;44.60
16134;DHT22;8172;45.018;5.972;2022-09-17T13:32:45;16.50;44.20
16134;DHT22;8172;45.018;5.972;2022-09-17T13:48:10;16.30;44.40
16134;DHT22;8172;45.018;5.972;2022-09-17T13:53:21;16.40;44.10
16134;DHT22;8172;45.018;5.972;2022-09-17T13:58:32;16.40;43.50
16134;DHT22;8172;45.018;5.972;2022-09-17T14:08:50;16.30;43.10
16134;DHT22;8172;45.018;5.972;2022-09-17T14:24:23;15.50;42.60
16134;DHT22;8172;45.018;5.972;2022-09-17T14:29:53;15.40;43.10
16134;DHT22;8172;45.018;5.972;2022-09-17T14:34:41;15.30;43.50
16134;DHT22;8172;45.018;5.972;2022-09-17T14:39:48;15.30;43.20
16134;DHT22;8172;45.018;5.972;2022-09-17T14:45:00;15.40;43.10
16134;DHT22;8172;45.018;5.972;2022-09-17T14:55:18;15.50;42.80
16134;DHT22;8172;45.018;5.972;2022-09-17T15:00:32;15.40;42.30
16134;DHT22;8172;45.018;5.972;2022-09-17T15:05:37;15.30;43.10
16134;DHT22;8172;45.018;5.972;2022-09-17T15:10:48;15.30;42.70
16134;DHT22;8172;45.018;5.972;2022-09-17T15:15:59;15.10;42.30
16134;DHT22;8172;45.018;5.972;2022-09-17T15:21:15;14.80;42.70
16134;DHT22;8172;45.018;5.972;2022-09-17T15:26:19;14.50;42.80
16134;DHT22;8172;45.018;5.972;2022-09-17T15:31:27;14.30;43.10
16134;DHT22;8172;45.018;5.972;2022-09-17T15:36:35;14.00;43.70
16134;DHT22;8172;45.018;5.972;2022-09-17T15:41:42;13.80;44.40
16134;DHT22;8172;45.018;5.972;2022-09-17T15:46:49;13.80;45.30
16134;DHT22;8172;45.018;5.972;2022-09-17T15:57:10;13.70;45.90
16134;DHT22;8172;45.018;5.972;2022-09-17T16:07:28;13.80;46.90
16134;DHT22;8172;45.018;5.972;2022-09-17T16:12:36;13.80;46.90
16134;DHT22;8172;45.018;5.972;2022-09-17T16:17:44;13.80;47.20
16134;DHT22;8172;45.018;5.972;2022-09-17T16:22:52;13.80;47.50
16134;DHT22;8172;45.018;5.972;2022-09-17T16:28:02;13.80;47.50
16134;DHT22;8172;45.018;5.972;2022-09-17T16:33:10;13.80;47.80
16134;DHT22;8172;45.018;5.972;2022-09-17T16:38:18;13.70;48.20
16134;DHT22;8172;45.018;5.972;2022-09-17T16:43:25;13.70;48.70
16134;DHT22;8172;45.018;5.972;2022-09-17T16:48:32;13.70;48.50
16134;DHT22;8172;45.018;5.972;2022-09-17T16:53:39;13.60;48.90
16134;DHT22;8172;45.018;5.972;2022-09-17T16:58:46;13.60;49.30
16134;DHT22;8172;45.018;5.972;2022-09-17T17:03:53;13.50;49.50
16134;DHT22;8172;45.018;5.972;2022-09-17T17:09:02;13.40;49.60
16134;DHT22;8172;45.018;5.972;2022-09-17T17:14:09;13.30;49.70
16134;DHT22;8172;45.018;5.972;2022-09-17T17:19:17;13.30;49.70
16134;DHT22;8172;45.018;5.972;2022-09-17T17:24:24;13.20;49.80
16134;DHT22;8172;45.018;5.972;2022-09-17T17:29:31;13.20;50.10
16134;DHT22;8172;45.018;5.972;2022-09-17T17:34:40;13.10;50.10
16134;DHT22;8172;45.018;5.972;2022-09-17T17:39:47;13.00;50.20
16134;DHT22;8172;45.018;5.972;2022-09-17T17:44:53;12.90;50.30
16134;DHT22;8172;45.018;5.972;2022-09-17T17:50:00;12.80;50.40
16134;DHT22;8172;45.018;5.972;2022-09-17T17:55:07;12.80;50.70
16134;DHT22;8172;45.018;5.972;2022-09-17T18:00:14;12.70;51.10
16134;DHT22;8172;45.018;5.972;2022-09-17T18:05:23;12.60;51.40
16134;DHT22;8172;45.018;5.972;2022-09-17T18:10:30;12.60;51.60
16134;DHT22;8172;45.018;5.972;2022-09-17T18:15:37;12.50;51.80
16134;DHT22;8172;45.018;5.972;2022-09-17T18:20:44;12.40;51.90
16134;DHT22;8172;45.018;5.972;2022-09-17T18:25:53;12.40;52.10
16134;DHT22;8172;45.018;5.972;2022-09-17T18:31:03;12.30;52.30
16134;DHT22;8172;45.018;5.972;2022-09-17T18:36:10;12.20;52.70
16134;DHT22;8172;45.018;5.972;2022-09-17T18:41:17;12.10;53.00
16134;DHT22;8172;45.018;5.972;2022-09-17T18:46:23;12.10;53.20
16134;DHT22;8172;45.018;5.972;2022-09-17T18:51:31;12.00;53.50
16134;DHT22;8172;45.018;5.972;2022-09-17T18:56:38;12.00;53.70
16134;DHT22;8172;45.018;5.972;2022-09-17T19:01:46;11.90;53.80
16134;DHT22;8172;45.018;5.972;2022-09-17T19:06:54;11.90;53.90
16134;DHT22;8172;45.018;5.972;2022-09-17T19:12:01;11.80;54.10
16134;DHT22;8172;45.018;5.972;2022-09-17T19:17:08;11.80;54.20
16134;DHT22;8172;45.018;5.972;2022-09-17T19:22:15;11.80;54.30
16134;DHT22;8172;45.018;5.972;2022-09-17T19:27:22;11.80;54.30
16134;DHT22;8172;45.018;5.972;2022-09-17T19:32:29;11.80;54.50
16134;DHT22;8172;45.018;5.972;2022-09-17T19:37:37;11.70;54.60
16134;DHT22;8172;45.018;5.972;2022-09-17T19:47:54;11.60;54.80
16134;DHT22;8172;45.018;5.972;2022-09-17T19:53:03;11.60;54.80
16134;DHT22;8172;45.018;5.972;2022-09-17T19:58:10;11.50;54.90
16134;DHT22;8172;45.018;5.972;2022-09-17T20:03:17;11.50;54.90
16134;DHT22;8172;45.018;5.972;2022-09-17T20:08:24;11.40;55.00
16134;DHT22;8172;45.018;5.972;2022-09-17T20:13:31;11.40;55.00
16134;DHT22;8172;45.018;5.972;2022-09-17T20:18:38;11.30;55.10
16134;DHT22;8172;45.018;5.972;2022-09-17T20:23:46;11.30;55.20
16134;DHT22;8172;45.018;5.972;2022-09-17T20:28:53;11.20;55.30
16134;DHT22;8172;45.018;5.972;2022-09-17T20:34:02;11.10;55.30
16134;DHT22;8172;45.018;5.972;2022-09-17T20:39:10;11.10;55.40
16134;DHT22;8172;45.018;5.972;2022-09-17T20:44:18;11.00;55.60
16134;DHT22;8172;45.018;5.972;2022-09-17T20:49:25;10.90;55.70
16134;DHT22;8172;45.018;5.972;2022-09-17T20:54:32;10.90;56.10
16134;DHT22;8172;45.018;5.972;2022-09-17T20:59:39;10.90;56.10
16134;DHT22;8172;45.018;5.972;2022-09-17T21:04:49;10.80;56.30
16134;DHT22;8172;45.018;5.972;2022-09-17T21:09:55;10.80;56.50
16134;DHT22;8172;45.018;5.972;2022-09-17T21:15:02;10.80;56.60
16134;DHT22;8172;45.018;5.972;2022-09-17T21:20:09;10.70;56.70
16134;DHT22;8172;45.018;5.972;2022-09-17T21:25:16;10.70;56.80
16134;DHT22;8172;45.018;5.972;2022-09-17T21:30:23;10.60;56.80
16134;DHT22;8172;45.018;5.972;2022-09-17T21:35:31;10.60;56.80
16134;DHT22;8172;45.018;5.972;2022-09-17T21:40:38;10.60;56.90
16134;DHT22;8172;45.018;5.972;2022-09-17T21:51:02;10.50;57.10
16134;DHT22;8172;45.018;5.972;2022-09-17T21:56:11;10.50;57.30
16134;DHT22;8172;45.018;5.972;2022-09-17T22:01:18;10.50;57.50
16134;DHT22;8172;45.018;5.972;2022-09-17T22:06:28;10.50;57.60
16134;DHT22;8172;45.018;5.972;2022-09-17T22:11:36;10.50;57.60
16134;DHT22;8172;45.018;5.972;2022-09-17T22:16:45;10.40;57.60
16134;DHT22;8172;45.018;5.972;2022-09-17T22:21:54;10.40;57.80
16134;DHT22;8172;45.018;5.972;2022-09-17T22:27:01;10.40;57.80
16134;DHT22;8172;45.018;5.972;2022-09-17T22:32:08;10.40;57.80
16134;DHT22;8172;45.018;5.972;2022-09-17T22:37:14;10.40;58.10
16134;DHT22;8172;45.018;5.972;2022-09-17T22:42:21;10.40;58.30
16134;DHT22;8172;45.018;5.972;2022-09-17T22:47:28;10.40;58.40
16134;DHT22;8172;45.018;5.972;2022-09-17T22:52:35;10.30;58.50
16134;DHT22;8172;45.018;5.972;2022-09-17T22:57:42;10.30;58.70
16134;DHT22;8172;45.018;5.972;2022-09-17T23:02:49;10.30;58.80
16134;DHT22;8172;45.018;5.972;2022-09-17T23:07:57;10.30;58.80
16134;DHT22;8172;45.018;5.972;2022-09-17T23:13:04;10.20;58.70
16134;DHT22;8172;45.018;5.972;2022-09-17T23:18:11;10.20;58.60
16134;DHT22;8172;45.018;5.972;2022-09-17T23:23:18;10.20;58.70
16134;DHT22;8172;45.018;5.972;2022-09-17T23:28:26;10.10;58.80
16134;DHT22;8172;45.018;5.972;2022-09-17T23:33:33;10.10;58.90
16134;DHT22;8172;45.018;5.972;2022-09-17T23:38:42;10.10;59.00
16134;DHT22;8172;45.018;5.972;2022-09-17T23:43:51;10.10;59.00
16134;DHT22;8172;45.018;5.972;2022-09-17T23:48:59;10.00;59.00
16134;DHT22;8172;45.018;5.972;2022-09-17T23:54:05;9.90;59.00
16134;DHT22;8172;45.018;5.972;2022-09-17T23:59:12;9.90;59.00
